Time;durP1;ratioP1;P1;durP2;ratioP2;P2;SDS_P1;SDS_P2;PMS_P1;PMS_P2;Temp;Humidity;BMP_temperature;BMP_pressure;BME280_temperature;BME280_humidity;BME280_pressure;Samples;Min_cycle;Max_cycle;Signal;HPM_P1;HPM_P2
2023/06/30 00:01:51;;;;;;;6.45;4.07;;;;;;;20.43;60.55;99590.53;4917334;29;20052;-83
2023/06/30 00:04:18;;;;;;;5.32;3.97;;;;;;;20.40;60.68;99586.34;4899995;29;20123;-83
2023/06/30 00:06:49;;;;;;;5.07;3.97;;;;;;;20.38;60.59;99590.16;4916588;29;20056;-83
2023/06/30 00:09:19;;;;;;;4.20;3.50;;;;;;;20.38;60.83;99593.69;4900276;29;20114;-83
2023/06/30 00:11:49;;;;;;;4.65;3.75;;;;;;;20.34;60.93;99597.66;4900401;29;20075;-83
2023/06/30 00:14:16;;;;;;;3.70;3.40;;;;;;;20.34;60.58;99589.66;4916605;29;20582;-84
2023/06/30 00:16:42;;;;;;;4.75;3.30;;;;;;;20.33;60.39;99589.78;4916522;29;20066;-83
2023/06/30 00:19:09;;;;;;;4.55;2.88;;;;;;;20.31;60.32;99592.63;4900074;29;20092;-83
2023/06/30 00:21:41;;;;;;;4.20;3.20;;;;;;;20.28;60.64;99588.44;4900118;29;20070;-83
2023/06/30 00:24:13;;;;;;;4.40;3.00;;;;;;;20.24;60.62;99587.06;4916564;29;20060;-83
2023/06/30 00:26:40;;;;;;;3.00;2.40;;;;;;;20.22;60.34;99586.34;4900006;29;20404;-83
2023/06/30 00:29:07;;;;;;;2.33;2.13;;;;;;;20.20;60.25;99584.84;4916835;29;20068;-83
2023/06/30 00:31:34;;;;;;;2.58;2.35;;;;;;;20.15;60.02;99577.31;4916590;29;20083;-83
2023/06/30 00:34:00;;;;;;;2.55;1.95;;;;;;;20.10;60.43;99564.38;4916588;29;20084;-83
2023/06/30 00:36:29;;;;;;;4.43;2.15;;;;;;;20.07;60.45;99564.69;4916242;29;20063;-83
2023/06/30 00:38:55;;;;;;;3.35;2.03;;;;;;;20.05;60.22;99572.88;4899528;29;20068;-83
2023/06/30 00:41:22;;;;;;;3.33;1.60;;;;;;;20.03;60.30;99566.84;4916307;29;20056;-83
2023/06/30 00:43:48;;;;;;;3.08;1.70;;;;;;;20.03;60.36;99557.97;4933515;23;20104;-79
2023/06/30 00:46:18;;;;;;;2.13;1.65;;;;;;;19.98;60.38;99561.13;4954144;29;20059;-79
2023/06/30 00:48:45;;;;;;;2.33;1.65;;;;;;;19.99;60.42;99556.59;4953929;29;20470;-80
2023/06/30 00:51:12;;;;;;;3.33;1.90;;;;;;;19.98;60.47;99549.56;4954199;29;20536;-80
2023/06/30 00:53:39;;;;;;;3.83;1.90;;;;;;;19.96;60.34;99551.56;4954373;29;20069;-81
2023/06/30 00:56:05;;;;;;;2.80;1.65;;;;;;;19.93;60.16;99550.84;4953922;29;20474;-79
2023/06/30 00:58:32;;;;;;;3.88;1.90;;;;;;;19.91;60.27;99552.84;4953980;29;20142;-79
2023/06/30 01:01:14;;;;;;;3.88;2.00;;;;;;;19.87;60.64;99556.81;4937327;29;20071;-79
2023/06/30 01:03:51;;;;;;;4.35;1.77;;;;;;;19.88;60.68;99550.47;4953819;29;20138;-79
2023/06/30 01:06:37;;;;;;;4.38;1.75;;;;;;;19.85;60.91;99550.78;4953837;29;20512;-79
2023/06/30 01:09:08;;;;;;;3.78;1.80;;;;;;;19.87;60.38;99559.50;4954324;29;20062;-79
2023/06/30 01:11:36;;;;;;;4.20;1.70;;;;;;;19.86;60.14;99562.31;4936799;29;20458;-79
2023/06/30 01:14:04;;;;;;;3.70;1.55;;;;;;;19.84;60.46;99567.81;4953674;29;20059;-79
2023/06/30 01:16:33;;;;;;;2.95;1.50;;;;;;;19.82;60.60;99566.28;4953680;29;20051;-79
2023/06/30 01:19:03;;;;;;;4.47;1.73;;;;;;;19.78;60.34;99565.75;4953848;29;20055;-79
2023/06/30 01:21:30;;;;;;;4.38;1.80;;;;;;;19.75;60.41;99571.41;4954465;29;20062;-79
2023/06/30 01:24:04;;;;;;;5.43;1.95;;;;;;;19.71;61.01;99562.00;4953379;29;20497;-79
2023/06/30 01:26:34;;;;;;;4.43;1.90;;;;;;;19.69;60.82;99564.81;4936585;29;20055;-79
2023/06/30 01:29:03;;;;;;;4.90;1.95;;;;;;;19.66;60.99;99565.13;4936616;29;20107;-79
2023/06/30 01:31:31;;;;;;;5.00;2.20;;;;;;;19.63;61.10;99560.94;4953540;29;20058;-79
2023/06/30 01:34:01;;;;;;;5.53;2.20;;;;;;;19.59;61.32;99564.88;4953371;29;20055;-79
2023/06/30 01:36:28;;;;;;;3.58;1.80;;;;;;;19.59;60.92;99558.72;4952860;29;20514;-79
2023/06/30 01:38:54;;;;;;;3.50;2.65;;;;;;;19.57;61.15;99558.88;4936576;29;20078;-79
2023/06/30 01:41:21;;;;;;;6.45;2.50;;;;;;;19.55;60.99;99570.69;4953494;29;20059;-79
2023/06/30 01:43:49;;;;;;;4.28;1.98;;;;;;;19.52;61.29;99566.50;4952902;29;20201;-80
2023/06/30 01:46:16;;;;;;;4.75;2.42;;;;;;;19.50;61.35;99565.78;4953220;29;20063;-79
2023/06/30 01:48:43;;;;;;;5.85;2.40;;;;;;;19.49;61.63;99564.13;4953369;29;20066;-79
2023/06/30 01:51:13;;;;;;;4.57;2.35;;;;;;;19.45;62.09;99565.41;4953348;29;20055;-79
2023/06/30 01:53:40;;;;;;;4.70;2.15;;;;;;;19.45;61.36;99554.75;4952501;28;20065;-79
2023/06/30 01:56:06;;;;;;;4.30;1.95;;;;;;;19.43;61.94;99554.06;4952647;29;20521;-80
2023/06/30 01:58:32;;;;;;;5.20;2.50;;;;;;;19.43;61.88;99548.72;4952977;29;20357;-79
2023/06/30 02:00:59;;;;;;;7.45;2.50;;;;;;;19.40;61.83;99556.03;4953173;29;20521;-79
2023/06/30 02:03:25;;;;;;;6.38;2.85;;;;;;;19.39;61.72;99553.50;4953201;29;20066;-79
2023/06/30 02:05:52;;;;;;;5.50;2.17;;;;;;;19.39;62.03;99556.16;4952530;29;20466;-79
2023/06/30 02:08:18;;;;;;;4.53;2.50;;;;;;;19.37;61.92;99559.00;4952780;29;20598;-79
2023/06/30 02:10:45;;;;;;;5.05;2.50;;;;;;;19.37;62.19;99566.19;4952694;29;20562;-79
2023/06/30 02:13:11;;;;;;;4.88;2.42;;;;;;;19.36;62.04;99567.16;4952832;29;20494;-79
2023/06/30 02:15:37;;;;;;;6.40;2.55;;;;;;;19.35;62.12;99563.66;4952575;29;20063;-79
2023/06/30 02:18:04;;;;;;;5.50;2.78;;;;;;;19.34;62.35;99556.63;4952827;29;20062;-79
2023/06/30 02:20:30;;;;;;;6.47;2.80;;;;;;;19.33;62.21;99552.28;4952758;29;20063;-80
2023/06/30 02:22:56;;;;;;;5.40;2.60;;;;;;;19.32;62.51;99550.59;4952758;29;20066;-79
2023/06/30 02:25:23;;;;;;;8.50;2.88;;;;;;;19.30;62.38;99549.91;4952226;29;20066;-79
2023/06/30 02:27:50;;;;;;;9.15;2.63;;;;;;;19.29;62.50;99550.06;4952410;29;20055;-80
2023/06/30 02:30:17;;;;;;;7.57;2.88;;;;;;;19.28;62.41;99557.22;4952694;29;20440;-79
2023/06/30 02:32:44;;;;;;;7.25;3.05;;;;;;;19.27;62.51;99556.41;4935540;29;20065;-79
2023/06/30 02:35:12;;;;;;;5.93;2.70;;;;;;;19.27;62.47;99566.22;4952017;29;20498;-79
2023/06/30 02:37:39;;;;;;;5.10;3.03;;;;;;;19.27;62.34;99563.56;4952179;29;20122;-79
2023/06/30 02:40:06;;;;;;;5.28;3.05;;;;;;;19.27;62.57;99567.06;4952091;29;20506;-79
2023/06/30 02:42:33;;;;;;;6.80;3.15;;;;;;;19.27;62.51;99568.91;4952328;29;20580;-79
2023/06/30 02:44:59;;;;;;;6.28;3.35;;;;;;;19.24;62.75;99566.50;4952201;29;20522;-79
2023/06/30 02:47:26;;;;;;;7.65;3.35;;;;;;;19.23;62.82;99567.50;4952063;29;20062;-79
2023/06/30 02:49:52;;;;;;;7.60;3.47;;;;;;;19.21;62.79;99562.31;4952422;29;20205;-79
2023/06/30 02:52:18;;;;;;;9.57;3.05;;;;;;;19.20;62.92;99565.13;4952472;29;20066;-79
2023/06/30 02:54:45;;;;;;;11.30;3.40;;;;;;;19.18;62.63;99562.63;4951894;29;20066;-79
2023/06/30 02:57:11;;;;;;;9.25;3.55;;;;;;;19.18;62.42;99556.44;4951823;29;20101;-79
2023/06/30 02:59:38;;;;;;;6.05;2.75;;;;;;;19.15;62.29;99554.91;4951626;29;20058;-80
2023/06/30 03:02:04;;;;;;;6.85;2.90;;;;;;;19.14;62.68;99570.06;4952281;29;20511;-79
2023/06/30 03:04:31;;;;;;;11.07;3.25;;;;;;;19.11;62.65;99566.88;4951811;29;20055;-79
2023/06/30 03:06:57;;;;;;;6.18;3.03;;;;;;;19.08;62.55;99567.16;4951403;29;20061;-79
2023/06/30 03:09:24;;;;;;;6.50;3.05;;;;;;;19.06;62.31;99574.47;4951940;29;20067;-79
2023/06/30 03:11:50;;;;;;;5.88;2.90;;;;;;;19.02;62.17;99572.06;4952288;29;20142;-79
2023/06/30 03:14:16;;;;;;;7.00;3.00;;;;;;;19.00;62.46;99567.88;4952103;29;20063;-79
2023/06/30 03:16:43;;;;;;;7.65;3.40;;;;;;;18.98;62.21;99572.50;4951909;29;20056;-79
2023/06/30 03:19:09;;;;;;;10.23;2.97;;;;;;;18.95;62.65;99572.81;4952089;29;20091;-79
2023/06/30 03:21:36;;;;;;;6.20;2.60;;;;;;;18.93;62.57;99574.78;4951846;29;20059;-79
2023/06/30 03:24:02;;;;;;;9.50;3.78;;;;;;;18.89;62.21;99564.38;4952357;29;20051;-79
2023/06/30 03:26:29;;;;;;;5.43;2.72;;;;;;;18.87;62.75;99577.03;4952181;29;20059;-79
2023/06/30 03:28:55;;;;;;;9.93;3.17;;;;;;;18.84;62.99;99577.31;4952015;29;20055;-80
2023/06/30 03:31:23;;;;;;;6.88;2.85;;;;;;;18.83;62.64;99580.13;4951849;29;20051;-79
2023/06/30 03:33:49;;;;;;;9.60;3.15;;;;;;;18.81;62.52;99582.13;4951952;29;20152;-80
2023/06/30 03:36:15;;;;;;;7.10;2.60;;;;;;;18.79;62.37;99576.94;4952356;29;20067;-79
2023/06/30 03:38:42;;;;;;;8.38;2.67;;;;;;;18.77;62.86;99576.25;4934570;29;20350;-79
2023/06/30 03:41:08;;;;;;;8.57;3.00;;;;;;;18.74;62.27;99579.19;4934633;29;20064;-80
2023/06/30 03:43:35;;;;;;;8.93;3.13;;;;;;;18.71;62.34;99575.00;4951983;29;20130;-79
2023/06/30 03:46:01;;;;;;;5.30;2.88;;;;;;;18.70;62.40;99577.81;4951662;29;20061;-79
2023/06/30 03:48:28;;;;;;;8.80;2.90;;;;;;;18.69;62.59;99573.47;4951655;29;20134;-79
2023/06/30 03:50:54;;;;;;;5.82;2.80;;;;;;;18.68;62.37;99574.44;4934485;29;20051;-79
2023/06/30 03:53:21;;;;;;;8.25;2.58;;;;;;;18.67;62.22;99573.59;4951604;29;20059;-80
2023/06/30 03:55:48;;;;;;;10.15;2.97;;;;;;;18.66;62.42;99573.75;4934592;29;20166;-79
2023/06/30 03:58:14;;;;;;;5.22;2.08;;;;;;;18.65;62.15;99577.41;4951536;29;20055;-79
2023/06/30 04:00:41;;;;;;;7.20;2.38;;;;;;;18.62;62.19;99576.69;4951760;29;20106;-79
2023/06/30 04:03:07;;;;;;;9.20;2.63;;;;;;;18.61;62.13;99575.03;4951338;29;20063;-80
2023/06/30 04:05:34;;;;;;;7.22;2.80;;;;;;;18.60;62.05;99568.00;4934408;29;20063;-79
2023/06/30 04:08:00;;;;;;;5.25;2.50;;;;;;;18.59;61.75;99574.34;4951380;29;20160;-79
2023/06/30 04:10:27;;;;;;;7.45;2.50;;;;;;;18.58;61.71;99574.47;4951732;29;20059;-79
2023/06/30 04:12:53;;;;;;;5.03;2.30;;;;;;;18.54;61.37;99570.41;4934561;29;20102;-80
2023/06/30 04:15:20;;;;;;;8.13;2.50;;;;;;;18.50;61.69;99561.84;4951561;29;20065;-79
2023/06/30 04:17:46;;;;;;;7.78;2.40;;;;;;;18.45;61.28;99556.13;4953724;28;20051;-80
2023/06/30 04:20:15;;;;;;;8.45;2.60;;;;;;;18.40;61.79;99550.38;4954815;29;20506;-79
2023/06/30 04:22:42;;;;;;;5.70;2.05;;;;;;;18.36;61.66;99550.66;4954930;29;20373;-79
2023/06/30 04:25:08;;;;;;;6.53;2.65;;;;;;;18.33;61.53;99544.78;4954188;29;20063;-79
2023/06/30 04:27:35;;;;;;;5.75;2.33;;;;;;;18.30;61.58;99556.56;4954753;29;20062;-79
2023/06/30 04:30:03;;;;;;;10.50;2.83;;;;;;;18.28;61.59;99560.38;4954773;29;20081;-79
2023/06/30 04:32:29;;;;;;;5.85;2.50;;;;;;;18.25;61.47;99560.66;4953240;29;20065;-79
2023/06/30 04:34:58;;;;;;;4.15;2.03;;;;;;;18.21;61.81;99563.59;4954834;29;20139;-79
2023/06/30 04:37:28;;;;;;;5.15;1.75;;;;;;;18.19;62.12;99575.38;4954473;29;20083;-80
2023/06/30 04:39:59;;;;;;;8.35;2.10;;;;;;;18.16;62.31;99576.50;4954566;29;20565;-79
2023/06/30 04:42:29;;;;;;;9.85;2.50;;;;;;;18.17;62.17;99580.00;4954372;29;20353;-79
2023/06/30 04:44:55;;;;;;;8.20;2.53;;;;;;;18.18;62.19;99587.88;4934976;29;20059;-79
2023/06/30 04:47:22;;;;;;;6.10;2.25;;;;;;;18.18;62.06;99585.19;4935509;29;20146;-79
2023/06/30 04:49:48;;;;;;;5.63;2.03;;;;;;;18.19;62.35;99578.88;4935410;29;20056;-79
2023/06/30 04:52:15;;;;;;;8.00;2.33;;;;;;;18.20;62.00;99566.38;4935499;29;20056;-79
2023/06/30 04:54:41;;;;;;;8.70;2.05;;;;;;;18.20;62.16;99577.03;4950321;29;20055;-79
2023/06/30 04:57:08;;;;;;;8.27;1.80;;;;;;;18.19;61.96;99576.22;4953984;29;20063;-79
2023/06/30 04:59:34;;;;;;;9.02;2.90;;;;;;;18.19;62.10;99576.22;4954188;29;20078;-80
2023/06/30 05:02:01;;;;;;;7.50;1.77;;;;;;;18.17;61.83;99578.16;4954064;29;20058;-79
2023/06/30 05:04:27;;;;;;;9.80;2.15;;;;;;;18.17;61.62;99580.84;4953672;29;20146;-79
2023/06/30 05:06:54;;;;;;;5.55;2.55;;;;;;;18.16;61.80;99575.66;4953959;29;20055;-79
2023/06/30 05:09:22;;;;;;;4.43;2.10;;;;;;;18.14;61.77;99578.47;4954158;29;20172;-79
2023/06/30 05:11:49;;;;;;;5.28;2.17;;;;;;;18.13;61.60;99583.94;4954099;29;20059;-79
2023/06/30 05:14:16;;;;;;;5.45;2.20;;;;;;;18.11;61.32;99578.75;4953667;29;20059;-79
2023/06/30 05:16:43;;;;;;;9.55;2.00;;;;;;;18.09;61.39;99581.53;4953621;29;20074;-79
2023/06/30 05:19:09;;;;;;;6.57;2.15;;;;;;;18.09;61.50;99578.88;4953792;29;20090;-79
2023/06/30 05:21:36;;;;;;;9.40;2.60;;;;;;;18.08;61.23;99585.19;4953893;29;20061;-79
2023/06/30 05:24:02;;;;;;;4.53;1.75;;;;;;;18.08;61.27;99593.19;4936358;29;20058;-80
2023/06/30 05:26:29;;;;;;;7.20;1.75;;;;;;;18.09;61.03;99586.88;4953650;29;20063;-79
2023/06/30 05:28:55;;;;;;;8.15;2.35;;;;;;;18.07;61.13;99588.81;4935580;29;20074;-79
2023/06/30 05:31:30;;;;;;;5.85;2.30;;;;;;;18.06;60.46;99589.78;4953786;29;20055;-80
2023/06/30 05:33:57;;;;;;;6.43;2.30;;;;;;;18.06;60.85;99592.44;4953662;29;20138;-80
2023/06/30 05:36:23;;;;;;;8.90;2.35;;;;;;;18.04;61.42;99589.09;4953135;29;20183;-79
2023/06/30 05:38:49;;;;;;;7.15;2.47;;;;;;;18.03;61.26;99589.22;4953353;29;20063;-79
2023/06/30 05:41:16;;;;;;;8.13;2.10;;;;;;;18.03;60.83;99586.56;4953474;29;20051;-79
2023/06/30 05:43:43;;;;;;;6.72;2.50;;;;;;;18.02;60.66;99590.22;4953195;29;20066;-79
2023/06/30 05:46:09;;;;;;;7.28;2.00;;;;;;;18.02;61.53;99591.03;4952962;29;20063;-80
2023/06/30 05:48:35;;;;;;;6.43;2.42;;;;;;;18.04;61.34;99594.41;4952736;29;20557;-79
2023/06/30 05:51:02;;;;;;;5.82;2.03;;;;;;;18.06;61.79;99597.78;4952971;29;20058;-79
2023/06/30 05:53:28;;;;;;;5.93;2.38;;;;;;;18.09;61.61;99605.53;4953368;29;20063;-80
2023/06/30 05:55:55;;;;;;;6.07;2.05;;;;;;;18.13;61.82;99611.41;4952809;29;20063;-79
2023/06/30 05:58:25;;;;;;;7.53;2.05;;;;;;;18.16;61.45;99605.78;4952725;29;20079;-79
2023/06/30 06:00:51;;;;;;;10.50;2.42;;;;;;;18.20;61.32;99606.34;4935906;29;20074;-79
2023/06/30 06:03:17;;;;;;;7.22;2.30;;;;;;;18.23;61.25;99608.75;4952932;29;20070;-80
2023/06/30 06:05:44;;;;;;;6.60;2.20;;;;;;;18.26;61.59;99600.47;4952532;29;20150;-79
2023/06/30 06:08:12;;;;;;;12.20;2.47;;;;;;;18.31;61.21;99613.34;4952862;29;20110;-79
2023/06/30 06:10:38;;;;;;;8.02;2.20;;;;;;;18.33;61.81;99604.25;4952447;29;20545;-79
2023/06/30 06:13:04;;;;;;;6.20;2.28;;;;;;;18.38;61.38;99611.81;4952736;29;20059;-80
2023/06/30 06:15:31;;;;;;;5.55;2.33;;;;;;;18.42;61.42;99615.03;4952927;29;20110;-79
2023/06/30 06:17:57;;;;;;;6.82;2.40;;;;;;;18.47;61.50;99618.13;4952697;29;20533;-79
2023/06/30 06:20:24;;;;;;;9.13;2.53;;;;;;;18.51;61.37;99618.66;4953089;29;20146;-79
2023/06/30 06:22:50;;;;;;;7.35;2.05;;;;;;;18.55;61.07;99618.25;4952385;29;20499;-79
2023/06/30 06:25:16;;;;;;;7.82;2.30;;;;;;;18.59;60.71;99619.66;4952841;29;20062;-79
2023/06/30 06:27:43;;;;;;;9.70;2.63;;;;;;;18.63;60.83;99620.19;4952844;29;20059;-79
2023/06/30 06:30:10;;;;;;;10.10;2.70;;;;;;;18.68;60.75;99617.09;4952793;29;20059;-80
2023/06/30 06:32:36;;;;;;;8.18;2.00;;;;;;;18.70;60.38;99612.47;4952254;29;20063;-85
2023/06/30 06:35:03;;;;;;;5.53;1.60;;;;;;;18.73;60.67;99609.53;4952128;29;20153;-79
2023/06/30 06:37:30;;;;;;;6.85;1.85;;;;;;;18.77;60.88;99610.91;4952717;29;20062;-79
2023/06/30 06:39:56;;;;;;;8.75;2.35;;;;;;;18.84;60.35;99611.16;4952247;28;20507;-79
2023/06/30 06:42:23;;;;;;;8.95;2.10;;;;;;;18.88;59.77;99609.91;4935063;29;20077;-79
2023/06/30 06:44:49;;;;;;;6.57;1.88;;;;;;;18.93;59.39;99614.78;5016558;23;20074;-81
2023/06/30 06:47:53;;;;;;;8.88;2.03;;;;;;;18.90;59.20;99615.91;4932562;29;20058;-81
2023/06/30 06:50:20;;;;;;;6.05;1.70;;;;;;;18.97;58.88;99600.16;4932730;29;20066;-81
2023/06/30 06:52:46;;;;;;;7.93;1.63;;;;;;;18.98;58.73;99607.16;4935435;29;20047;-79
2023/06/30 06:55:13;;;;;;;6.38;2.10;;;;;;;19.02;59.16;99613.91;4952713;29;20065;-80
2023/06/30 06:57:39;;;;;;;5.57;1.63;;;;;;;19.08;59.23;99609.84;4935282;29;20551;-80
2023/06/30 07:00:07;;;;;;;3.85;1.63;;;;;;;19.16;59.27;99609.94;4952696;29;20050;-80
2023/06/30 07:02:33;;;;;;;7.50;2.08;;;;;;;19.26;58.77;99612.59;4935213;29;20063;-78
2023/06/30 07:05:00;;;;;;;5.50;1.70;;;;;;;19.36;58.90;99615.22;4949235;29;20070;-80
2023/06/30 07:07:27;;;;;;;6.43;1.52;;;;;;;19.45;58.79;99600.97;4941085;29;20055;-80
2023/06/30 07:09:57;;;;;;;7.20;1.90;;;;;;;19.56;58.48;99609.75;4933234;29;20055;-80
2023/06/30 07:12:24;;;;;;;5.32;1.52;;;;;;;19.64;57.87;99609.84;4933378;29;20059;-81
2023/06/30 07:14:50;;;;;;;9.00;1.60;;;;;;;19.73;57.36;99613.44;4931887;29;20054;-79
2023/06/30 07:17:17;;;;;;;4.38;1.20;;;;;;;19.79;56.78;99612.84;4952020;29;20051;-79
2023/06/30 07:19:44;;;;;;;6.15;1.63;;;;;;;19.85;56.94;99606.88;4952283;29;20055;-80
2023/06/30 07:22:10;;;;;;;5.20;1.60;;;;;;;19.91;56.92;99600.94;4935148;29;20420;-81
2023/06/30 07:24:37;;;;;;;4.55;1.50;;;;;;;19.99;56.23;99602.88;4950883;29;20118;-80
2023/06/30 07:27:09;;;;;;;7.65;1.98;;;;;;;20.07;56.29;99606.63;4952074;29;20488;-80
2023/06/30 07:29:36;;;;;;;3.70;1.55;;;;;;;20.13;56.19;99606.84;4952290;29;20499;-81
2023/06/30 07:32:03;;;;;;;4.95;1.77;;;;;;;20.21;55.84;99613.22;4952290;29;20464;-79
2023/06/30 07:34:50;;;;;;;5.53;1.40;;;;;;;20.25;54.76;99611.94;4952292;29;20150;-80
2023/06/30 07:37:19;;;;;;;5.63;1.30;;;;;;;20.36;55.52;99617.03;4932625;29;20507;-79
2023/06/30 07:39:48;;;;;;;4.07;1.42;;;;;;;20.45;55.42;99615.28;4934187;28;20058;-79
2023/06/30 07:42:15;;;;;;;6.40;1.42;;;;;;;20.52;54.43;99607.47;4959379;28;20059;-79
2023/06/30 07:44:42;;;;;;;5.88;1.38;;;;;;;20.54;54.64;99614.34;4934491;29;20059;-79
2023/06/30 07:47:09;;;;;;;3.53;1.55;;;;;;;20.54;54.07;99621.53;4951251;29;20500;-80
2023/06/30 07:49:37;;;;;;;5.20;1.45;;;;;;;20.53;53.41;99618.00;4951784;29;20059;-80
2023/06/30 07:52:04;;;;;;;6.50;1.85;;;;;;;20.51;53.83;99619.16;4952968;28;20057;-80
2023/06/30 07:54:30;;;;;;;4.93;1.65;;;;;;;20.49;53.74;99616.66;4955062;29;20121;-81
2023/06/30 07:56:57;;;;;;;2.72;1.67;;;;;;;20.49;53.41;99610.47;4954931;29;20055;-83
2023/06/30 07:59:24;;;;;;;6.15;1.77;;;;;;;20.47;53.36;99610.63;4955592;29;20047;-81
2023/06/30 08:01:51;;;;;;;7.10;1.92;;;;;;;20.47;53.74;99618.63;4955573;29;20091;-81
2023/06/30 08:04:18;;;;;;;3.88;1.30;;;;;;;20.48;53.58;99608.78;4955687;29;20731;-84
2023/06/30 08:07:11;;;;;;;2.38;1.15;;;;;;;20.48;53.62;99609.59;4955009;29;20102;-82
2023/06/30 08:09:38;;;;;;;4.50;1.45;;;;;;;20.60;53.61;99612.03;4933593;29;20083;-82
2023/06/30 08:12:05;;;;;;;5.15;1.50;;;;;;;20.64;53.09;99608.88;4955527;29;20051;-81
2023/06/30 08:14:33;;;;;;;6.32;1.58;;;;;;;20.68;52.93;99610.25;4955145;29;20063;-82
2023/06/30 08:16:59;;;;;;;6.05;1.45;;;;;;;20.71;52.72;99609.13;4954908;29;20051;-80
2023/06/30 08:19:42;;;;;;;5.35;1.60;;;;;;;20.69;52.46;99617.28;4955197;29;20059;-83
2023/06/30 08:22:33;;;;;;;4.90;1.27;;;;;;;20.78;52.86;99614.69;4955174;29;20486;-82
2023/06/30 08:25:09;;;;;;;8.57;1.60;;;;;;;20.82;52.99;99616.03;4938597;29;20106;-81
2023/06/30 08:27:35;;;;;;;6.43;1.70;;;;;;;20.92;54.00;99619.47;4953212;29;20092;-83
2023/06/30 08:30:02;;;;;;;3.65;1.50;;;;;;;21.05;52.99;99620.88;4954982;29;20062;-80
2023/06/30 08:32:29;;;;;;;3.42;1.23;;;;;;;21.16;52.50;99620.56;4954602;29;20492;-81
2023/06/30 08:34:57;;;;;;;4.75;1.40;;;;;;;21.29;52.02;99622.81;4954841;29;20136;-81
2023/06/30 08:37:24;;;;;;;4.20;1.73;;;;;;;21.38;51.30;99620.19;4954003;29;20096;-82
2023/06/30 08:39:51;;;;;;;2.70;1.42;;;;;;;21.44;50.60;99623.03;4954485;29;20055;-82
2023/06/30 08:42:26;;;;;;;5.00;1.45;;;;;;;21.45;49.92;99623.88;4954670;29;20055;-81
2023/06/30 08:45:03;;;;;;;4.53;1.40;;;;;;;21.47;50.67;99627.22;4954455;29;20059;-82
2023/06/30 08:47:32;;;;;;;3.20;1.10;;;;;;;21.54;50.65;99619.38;4955704;29;20085;-80
2023/06/30 08:49:59;;;;;;;3.03;1.17;;;;;;;21.61;50.68;99621.25;4954384;29;20062;-81
2023/06/30 08:53:12;;;;;;;4.65;1.42;;;;;;;21.67;51.20;99619.75;4954724;29;20059;-83
2023/06/30 08:55:40;;;;;;;3.80;1.25;;;;;;;21.84;50.17;99627.88;4954288;29;20055;-80
2023/06/30 08:58:06;;;;;;;1.85;1.10;;;;;;;21.90;49.71;99626.38;4936827;29;20105;-81
2023/06/30 09:00:55;;;;;;;1.70;1.00;;;;;;;21.90;49.42;99623.69;4953988;29;20055;-81
2023/06/30 09:03:22;;;;;;;4.33;1.30;;;;;;;21.91;49.62;99623.53;4953396;28;20055;-81
2023/06/30 09:05:53;;;;;;;2.28;1.10;;;;;;;21.91;49.36;99612.81;4953993;29;20058;-80
2023/06/30 09:08:23;;;;;;;5.30;1.08;;;;;;;21.96;49.56;99618.50;4954808;29;20699;-80
2023/06/30 09:10:50;;;;;;;4.05;1.40;;;;;;;22.03;48.50;99616.00;4954422;29;20055;-81
2023/06/30 09:13:19;;;;;;;4.05;1.02;;;;;;;22.07;48.07;99612.00;4954212;29;20047;-83
2023/06/30 09:15:47;;;;;;;2.80;1.00;;;;;;;22.12;48.25;99611.47;4954369;29;20452;-82
2023/06/30 09:18:14;;;;;;;2.45;1.38;;;;;;;22.17;47.91;99606.47;4936617;29;20397;-82
2023/06/30 09:20:41;;;;;;;2.30;1.25;;;;;;;22.23;48.18;99612.97;4954383;29;20055;-83
2023/06/30 09:23:11;;;;;;;3.42;1.20;;;;;;;22.26;47.42;99608.16;4954479;29;20101;-82
2023/06/30 09:25:52;;;;;;;3.70;1.20;;;;;;;22.34;47.59;99611.81;4954514;29;20071;-83
2023/06/30 09:28:22;;;;;;;4.55;1.33;;;;;;;22.48;48.41;99602.25;4952942;29;20547;-81
2023/06/30 09:30:48;;;;;;;2.33;0.93;;;;;;;22.58;48.22;99612.84;4953740;29;20087;-83
2023/06/30 09:33:17;;;;;;;3.50;1.17;;;;;;;22.67;47.82;99613.66;4954468;29;20484;-83
2023/06/30 09:35:45;;;;;;;4.20;1.10;;;;;;;22.76;47.33;99608.09;4954081;29;20423;-82
2023/06/30 09:38:19;;;;;;;2.63;1.13;;;;;;;22.83;46.61;99602.88;4952730;29;20059;-83
2023/06/30 09:40:47;;;;;;;;;;;;;;;22.92;48.94;99601.03;4947931;29;20461;-83
2023/06/30 09:43:25;;;;;;;2.20;1.10;;;;;;;23.02;45.77;99601.66;4952693;29;20301;-82
2023/06/30 09:45:55;;;;;;;2.53;1.05;;;;;;;23.12;46.11;99604.16;4954806;29;20674;-82
2023/06/30 09:52:48;;;;;;;2.42;1.15;;;;;;;23.30;45.18;99590.44;4913233;29;20047;-83
2023/06/30 09:55:16;;;;;;;2.70;1.20;;;;;;;23.46;46.86;99586.06;4953440;29;20056;-84
2023/06/30 09:57:46;;;;;;;1.77;1.00;;;;;;;23.57;46.83;99590.19;4952962;29;20451;-82
2023/06/30 10:00:14;;;;;;;1.98;1.20;;;;;;;23.67;46.73;99587.28;4953573;29;20051;-83
2023/06/30 10:03:21;;;;;;;3.25;1.20;;;;;;;23.75;45.84;99579.16;4942917;29;20488;-83
2023/06/30 10:05:51;;;;;;;5.32;1.40;;;;;;;23.90;46.67;99584.63;4953154;29;20130;-82
2023/06/30 10:08:42;;;;;;;2.67;1.30;;;;;;;23.99;45.17;99593.44;4953058;29;20047;-83
2023/06/30 10:11:11;;;;;;;3.13;1.30;;;;;;;24.12;44.67;99583.97;4952841;29;20479;-81
2023/06/30 10:13:43;;;;;;;2.92;0.95;;;;;;;24.19;43.44;99576.84;4954266;29;20066;-83
2023/06/30 10:16:36;;;;;;;4.07;1.97;;;;;;;24.23;44.52;99575.47;4952569;29;20051;-83
2023/06/30 10:19:06;;;;;;;4.00;1.20;;;;;;;24.34;44.19;99571.50;4927083;29;20405;-82
2023/06/30 10:21:35;;;;;;;2.58;1.30;;;;;;;24.38;43.62;99569.28;4933934;29;20506;-82
2023/06/30 10:24:02;;;;;;;3.15;1.20;;;;;;;24.44;44.54;99573.91;4942153;29;20488;-82
2023/06/30 10:26:34;;;;;;;2.50;1.33;;;;;;;24.51;45.40;99577.56;4953088;29;20385;-82
2023/06/30 10:29:05;;;;;;;3.17;1.10;;;;;;;24.62;45.17;99570.88;4935830;29;20154;-83
2023/06/30 10:31:50;;;;;;;2.75;1.15;;;;;;;24.72;43.03;99573.31;4937150;29;20051;-82
2023/06/30 10:34:34;;;;;;;2.47;1.15;;;;;;;24.83;44.69;99578.25;4945981;29;20078;-82
2023/06/30 10:37:01;;;;;;;2.85;1.20;;;;;;;24.88;43.52;99572.31;4952661;29;20055;-83
2023/06/30 10:39:29;;;;;;;2.63;1.27;;;;;;;24.93;43.69;99574.47;4952093;29;20051;-83
2023/06/30 10:41:57;;;;;;;2.00;0.80;;;;;;;25.01;43.91;99574.38;4952735;29;20062;-83
2023/06/30 10:44:49;;;;;;;2.88;1.10;;;;;;;25.12;44.04;99578.44;4952294;29;20046;-84
2023/06/30 10:47:21;;;;;;;4.55;1.20;;;;;;;25.35;44.03;99572.06;4952301;29;20083;-83
2023/06/30 10:49:53;;;;;;;3.97;1.05;;;;;;;25.62;44.40;99575.09;4952106;29;20059;-83
2023/06/30 10:52:31;;;;;;;3.08;1.10;;;;;;;25.94;43.97;99570.22;4935875;29;20062;-83
2023/06/30 10:55:06;;;;;;;1.83;1.00;;;;;;;26.37;44.68;99566.66;4952605;29;20062;-83
2023/06/30 10:57:39;;;;;;;4.05;1.08;;;;;;;26.87;43.13;99560.31;4952324;29;20087;-83
2023/06/30 11:00:15;;;;;;;2.70;1.10;;;;;;;27.30;40.82;99562.00;4952346;29;20082;-84
2023/06/30 11:03:04;;;;;;;1.70;1.10;;;;;;;27.58;41.79;99552.91;4952616;29;20145;-83
2023/06/30 11:06:14;;;;;;;2.67;1.08;;;;;;;27.77;41.46;99555.06;4935658;29;20055;-83
2023/06/30 11:08:59;;;;;;;1.92;1.00;;;;;;;27.96;40.38;99550.72;4952344;29;20089;-85
2023/06/30 11:11:48;;;;;;;2.22;0.82;;;;;;;28.16;40.72;99537.16;4952660;29;20069;-83
2023/06/30 11:14:30;;;;;;;2.28;0.98;;;;;;;28.47;40.81;99543.81;4941065;29;20075;-80
2023/06/30 11:17:06;;;;;;;2.40;1.00;;;;;;;28.89;39.93;99539.94;4947802;29;20047;-81
2023/06/30 11:19:36;;;;;;;3.70;1.20;;;;;;;29.34;38.57;99535.63;4952789;29;20092;-81
2023/06/30 11:22:32;;;;;;;2.20;1.00;;;;;;;29.80;39.17;99539.09;4952880;29;20067;-82
2023/06/30 11:25:28;;;;;;;3.60;0.93;;;;;;;30.30;36.03;99527.44;4932105;29;20111;-83
2023/06/30 11:27:56;;;;;;;2.17;0.90;;;;;;;30.58;35.45;99527.13;4936220;29;20103;-82
2023/06/30 11:30:23;;;;;;;2.53;1.00;;;;;;;30.60;34.06;99530.47;4937749;29;20055;-82
2023/06/30 11:32:58;;;;;;;1.73;0.88;;;;;;;30.36;33.90;99523.00;4954456;29;20055;-82
2023/06/30 11:35:29;;;;;;;3.63;0.95;;;;;;;30.12;33.87;99530.09;4955506;29;20055;-82
2023/06/30 11:37:55;;;;;;;2.63;1.17;;;;;;;29.80;33.62;99532.84;4955703;29;20055;-82
2023/06/30 11:40:22;;;;;;;2.03;0.90;;;;;;;29.43;33.86;99537.03;4955782;29;20059;-82
2023/06/30 11:42:52;;;;;;;2.38;0.80;;;;;;;29.10;33.97;99535.31;4956131;29;20062;-82
2023/06/30 11:45:27;;;;;;;2.00;0.82;;;;;;;28.83;34.99;99535.38;4955909;28;20052;-82
2023/06/30 11:47:55;;;;;;;1.63;1.02;;;;;;;28.68;36.61;99536.50;4938277;29;20645;-83
2023/06/30 11:50:25;;;;;;;1.38;0.80;;;;;;;28.73;36.01;99525.84;4955179;28;20050;-81